Time;durP1;ratioP1;P1;durP2;ratioP2;P2;SDS_P1;SDS_P2;PMS_P1;PMS_P2;Temp;Humidity;BMP_temperature;BMP_pressure;BME280_temperature;BME280_humidity;BME280_pressure;Samples;Min_cycle;Max_cycle;Signal;HPM_P1;HPM_P2
2021/08/15 00:00:35;;;;;;;14.05;7.45;;;28.10;74.80;;;;;;5063023;28;20020;-60
2021/08/15 00:03:01;;;;;;;12.90;7.05;;;28.10;74.90;;;;;;5063574;28;20041;-60
2021/08/15 00:05:26;;;;;;;10.75;7.35;;;28.10;74.90;;;;;;5050701;28;20024;-60
2021/08/15 00:07:53;;;;;;;10.25;7.63;;;28.10;75.00;;;;;;5047988;28;20484;-60
2021/08/15 00:10:19;;;;;;;9.23;7.00;;;28.00;75.80;;;;;;5049884;28;20031;-60
2021/08/15 00:12:44;;;;;;;14.63;8.07;;;28.00;75.10;;;;;;5048905;28;20037;-60
2021/08/15 00:15:10;;;;;;;12.23;7.57;;;28.00;75.30;;;;;;5047190;28;20044;-59
2021/08/15 00:17:36;;;;;;;12.27;7.35;;;27.90;76.00;;;;;;5048904;28;20031;-60
2021/08/15 00:20:03;;;;;;;12.90;7.43;;;27.90;75.40;;;;;;5063593;28;20039;-60
2021/08/15 00:22:28;;;;;;;13.05;7.78;;;27.90;75.50;;;;;;5028024;28;20027;-59
2021/08/15 00:24:54;;;;;;;14.10;7.50;;;27.80;75.60;;;;;;5045792;28;20042;-60
2021/08/15 00:27:20;;;;;;;11.82;7.78;;;27.80;75.70;;;;;;5042093;28;20396;-60
2021/08/15 00:29:45;;;;;;;12.38;7.68;;;27.80;75.70;;;;;;5062628;28;20029;-59
2021/08/15 00:32:11;;;;;;;13.00;7.32;;;27.80;75.90;;;;;;5023354;28;20035;-60
2021/08/15 00:34:36;;;;;;;15.02;8.38;;;27.70;75.90;;;;;;5059859;28;20444;-59
2021/08/15 00:37:02;;;;;;;13.43;8.10;;;27.70;76.00;;;;;;5061432;28;20443;-60
2021/08/15 00:39:27;;;;;;;12.48;7.68;;;27.70;76.00;;;;;;5062601;28;20030;-60
2021/08/15 00:41:53;;;;;;;9.90;7.50;;;27.70;76.10;;;;;;5046482;28;20585;-60
2021/08/15 00:44:18;;;;;;;13.82;7.90;;;27.60;76.00;;;;;;5035358;28;20036;-60
2021/08/15 00:46:44;;;;;;;13.90;7.82;;;27.60;76.20;;;;;;5043522;28;20056;-60
2021/08/15 00:49:09;;;;;;;11.50;7.32;;;27.60;76.20;;;;;;5043460;28;20035;-60
2021/08/15 00:51:35;;;;;;;11.15;7.10;;;27.60;76.30;;;;;;5047545;28;20055;-60
2021/08/15 00:54:01;;;;;;;12.98;7.72;;;27.60;76.40;;;;;;5062476;28;20067;-60
2021/08/15 00:56:26;;;;;;;15.32;7.80;;;27.50;77.10;;;;;;5032054;28;20459;-60
2021/08/15 00:58:53;;;;;;;12.80;6.75;;;27.50;76.50;;;;;;5047488;28;20040;-60
2021/08/15 01:01:18;;;;;;;13.20;6.82;;;27.50;76.60;;;;;;5064928;28;20016;-59
2021/08/15 01:03:44;;;;;;;10.60;7.22;;;27.40;76.70;;;;;;5046208;28;20043;-60
2021/08/15 01:06:10;;;;;;;14.07;7.72;;;27.40;76.70;;;;;;5049135;28;20052;-60
2021/08/15 01:08:36;;;;;;;16.25;7.80;;;27.40;76.80;;;;;;5033136;28;20036;-59
2021/08/15 01:11:03;;;;;;;14.18;7.90;;;27.40;76.90;;;;;;5033683;28;20024;-59
2021/08/15 01:13:29;;;;;;;11.43;7.53;;;27.30;77.00;;;;;;5026387;28;20120;-60
2021/08/15 01:15:55;;;;;;;12.05;7.35;;;27.40;77.10;;;;;;5044995;28;20561;-59
2021/08/15 01:18:26;;;;;;;13.35;7.47;;;27.30;77.10;;;;;;5026559;28;20054;-60
2021/08/15 01:20:57;;;;;;;12.07;7.78;;;27.30;77.20;;;;;;5053719;28;20032;-60
2021/08/15 01:23:23;;;;;;;12.05;7.72;;;27.30;77.40;;;;;;5042200;28;20021;-60
2021/08/15 01:25:48;;;;;;;14.75;7.07;;;27.20;77.30;;;;;;5047182;28;20472;-59
2021/08/15 01:28:16;;;;;;;14.82;7.60;;;27.20;77.30;;;;;;5027839;28;20035;-59
2021/08/15 01:30:41;;;;;;;13.85;6.97;;;27.20;77.40;;;;;;5026357;28;20044;-59
2021/08/15 01:33:09;;;;;;;10.30;6.78;;;27.20;77.50;;;;;;5029387;28;20024;-59
2021/08/15 01:35:35;;;;;;;12.30;7.68;;;27.10;77.50;;;;;;5064079;28;20044;-60
2021/08/15 01:38:00;;;;;;;12.43;7.68;;;27.10;77.60;;;;;;5061427;28;20557;-60
2021/08/15 01:40:26;;;;;;;13.30;7.40;;;27.10;77.70;;;;;;5063779;28;20020;-60
2021/08/15 01:42:51;;;;;;;10.77;7.63;;;27.00;77.70;;;;;;5054145;28;20152;-60
2021/08/15 01:45:17;;;;;;;12.82;7.00;;;27.00;78.00;;;;;;5063494;28;20102;-59
2021/08/15 01:47:42;;;;;;;11.95;7.38;;;27.00;78.10;;;;;;5014082;28;20024;-60
2021/08/15 01:50:08;;;;;;;10.18;7.25;;;27.00;78.20;;;;;;5064412;28;20035;-60
2021/08/15 01:52:34;;;;;;;14.15;7.68;;;27.00;78.20;;;;;;5040043;28;20029;-59
2021/08/15 01:54:59;;;;;;;14.77;8.13;;;26.90;78.40;;;;;;5064990;28;20056;-60
2021/08/15 01:57:25;;;;;;;11.90;7.50;;;26.90;78.50;;;;;;5065333;28;20037;-59
2021/08/15 01:59:50;;;;;;;10.50;7.40;;;26.80;78.50;;;;;;5029755;28;20470;-60
2021/08/15 02:02:16;;;;;;;13.27;7.43;;;26.90;78.70;;;;;;5049316;28;20547;-59
2021/08/15 02:04:41;;;;;;;11.35;7.72;;;26.80;78.70;;;;;;5070799;28;20100;-59
2021/08/15 02:07:07;;;;;;;10.75;7.47;;;26.80;78.70;;;;;;5060568;28;20036;-60
2021/08/15 02:09:32;;;;;;;13.75;8.13;;;26.80;78.90;;;;;;5072362;28;20051;-59
2021/08/15 02:11:58;;;;;;;11.20;7.68;;;26.70;78.90;;;;;;5018440;28;20025;-59
2021/08/15 02:14:23;;;;;;;13.20;7.57;;;26.70;78.90;;;;;;5046147;28;20037;-60
2021/08/15 02:16:49;;;;;;;14.07;7.22;;;26.70;79.00;;;;;;5062201;28;20048;-60
2021/08/15 02:19:14;;;;;;;13.88;8.15;;;26.70;79.00;;;;;;5027648;28;20794;-59
2021/08/15 02:21:40;;;;;;;12.85;8.07;;;26.70;79.10;;;;;;5064265;28;20078;-60
2021/08/15 02:24:05;;;;;;;14.80;7.78;;;26.70;79.20;;;;;;5029528;28;20032;-59
2021/08/15 02:26:31;;;;;;;17.92;8.20;;;26.60;79.30;;;;;;5044429;28;20046;-60
2021/08/15 02:28:56;;;;;;;11.80;7.75;;;26.60;79.30;;;;;;5069796;28;20679;-59
2021/08/15 02:31:22;;;;;;;10.93;6.93;;;26.60;79.40;;;;;;5064718;28;20488;-59
2021/08/15 02:33:47;;;;;;;11.65;7.45;;;26.60;79.50;;;;;;5064272;28;20060;-60
2021/08/15 02:36:13;;;;;;;12.20;7.80;;;26.50;79.40;;;;;;5068644;28;20028;-59
2021/08/15 02:38:38;;;;;;;13.40;7.40;;;26.50;79.40;;;;;;5065969;28;20028;-60
2021/08/15 02:41:04;;;;;;;12.02;7.68;;;26.50;79.50;;;;;;5034911;28;20447;-59
2021/08/15 02:43:29;;;;;;;12.85;7.28;;;26.50;79.60;;;;;;5063840;28;20091;-60
2021/08/15 02:45:55;;;;;;;10.68;7.68;;;26.50;79.60;;;;;;5063888;28;20086;-60
2021/08/15 02:48:20;;;;;;;11.05;7.35;;;26.50;79.70;;;;;;5066352;28;20036;-60
2021/08/15 02:50:46;;;;;;;13.30;7.57;;;26.50;79.80;;;;;;5050579;28;20033;-59
2021/08/15 02:53:11;;;;;;;12.63;7.72;;;26.40;79.90;;;;;;5063067;28;20028;-59
2021/08/15 02:55:37;;;;;;;13.70;8.13;;;26.40;80.00;;;;;;5063320;28;20051;-60
2021/08/15 02:58:03;;;;;;;13.32;7.47;;;26.40;80.10;;;;;;5046560;28;20043;-59
2021/08/15 03:00:28;;;;;;;12.80;7.85;;;26.40;80.20;;;;;;5045125;28;20035;-60
2021/08/15 03:02:54;;;;;;;14.75;7.32;;;26.30;80.10;;;;;;5067433;28;20028;-59
2021/08/15 03:05:19;;;;;;;15.45;8.05;;;26.30;80.20;;;;;;5046023;28;20369;-59
2021/08/15 03:07:46;;;;;;;11.45;8.20;;;26.30;80.30;;;;;;5072133;28;21450;-60
2021/08/15 03:10:11;;;;;;;11.90;6.85;;;26.30;80.40;;;;;;5029557;28;20037;-59
2021/08/15 03:12:37;;;;;;;12.27;7.45;;;26.20;80.40;;;;;;5036026;28;20419;-59
2021/08/15 03:15:03;;;;;;;10.48;7.22;;;26.20;80.40;;;;;;5063386;28;20477;-59
2021/08/15 03:17:30;;;;;;;11.05;7.43;;;26.20;80.60;;;;;;5055208;28;20044;-59
2021/08/15 03:19:55;;;;;;;10.63;7.35;;;26.20;80.60;;;;;;5067679;28;20043;-59
2021/08/15 03:22:21;;;;;;;10.75;7.47;;;26.10;80.60;;;;;;5060747;28;20556;-60
2021/08/15 03:24:46;;;;;;;13.18;7.75;;;26.10;80.60;;;;;;5069082;28;20476;-60
2021/08/15 03:27:12;;;;;;;12.75;7.78;;;26.10;80.60;;;;;;5061422;28;20036;-59
2021/08/15 03:29:37;;;;;;;11.57;7.82;;;26.10;80.70;;;;;;5068174;28;20411;-59
2021/08/15 03:32:03;;;;;;;13.32;7.60;;;26.10;80.80;;;;;;5062554;28;20043;-59
2021/08/15 03:34:29;;;;;;;15.82;7.93;;;26.10;80.90;;;;;;5071067;28;20041;-59
2021/08/15 03:36:54;;;;;;;10.60;7.60;;;26.00;81.00;;;;;;5045371;28;20036;-60
2021/08/15 03:39:21;;;;;;;12.70;7.38;;;26.00;81.80;;;;;;5064357;28;20020;-59
2021/08/15 03:41:47;;;;;;;10.25;7.07;;;26.00;81.20;;;;;;5050062;28;20111;-59
2021/08/15 03:44:12;;;;;;;12.60;8.02;;;26.00;81.20;;;;;;5063306;28;20115;-59
2021/08/15 03:46:40;;;;;;;12.18;7.57;;;26.00;81.20;;;;;;5047400;28;20043;-60
2021/08/15 03:49:05;;;;;;;14.00;7.13;;;25.90;81.30;;;;;;5061306;28;20060;-59
2021/08/15 03:51:31;;;;;;;17.60;8.43;;;25.90;81.30;;;;;;5051708;28;20567;-59
2021/08/15 03:53:56;;;;;;;12.60;7.60;;;25.90;81.40;;;;;;5059940;28;20032;-60
2021/08/15 03:56:22;;;;;;;16.05;7.90;;;25.90;81.50;;;;;;5069299;28;20115;-59
2021/08/15 03:58:47;;;;;;;11.23;7.90;;;25.90;81.60;;;;;;5048297;28;20037;-60
2021/08/15 04:01:13;;;;;;;9.07;7.25;;;25.80;81.50;;;;;;5066605;28;20043;-60
2021/08/15 04:03:39;;;;;;;16.75;8.05;;;25.80;81.60;;;;;;5063247;28;20105;-59
2021/08/15 04:06:08;;;;;;;13.50;7.60;;;25.80;81.70;;;;;;5044138;28;20064;-60
2021/08/15 04:08:35;;;;;;;11.25;7.40;;;25.80;81.90;;;;;;5060780;28;20021;-60
2021/08/15 04:11:00;;;;;;;10.82;7.28;;;25.70;81.90;;;;;;5050289;28;20040;-60
2021/08/15 04:13:26;;;;;;;12.60;8.18;;;25.70;81.70;;;;;;5028087;28;20037;-60
2021/08/15 04:15:51;;;;;;;14.05;8.38;;;25.70;81.80;;;;;;5029406;28;20441;-59
2021/08/15 04:18:17;;;;;;;11.13;7.20;;;25.70;82.00;;;;;;5060276;28;20045;-60
2021/08/15 04:20:42;;;;;;;12.15;7.75;;;25.70;82.00;;;;;;5062830;28;20115;-59
2021/08/15 04:23:08;;;;;;;10.07;7.32;;;25.70;82.10;;;;;;5047887;28;20041;-59
2021/08/15 04:25:34;;;;;;;11.00;7.32;;;25.70;82.20;;;;;;5064287;28;20404;-59
2021/08/15 04:27:59;;;;;;;14.00;7.40;;;25.70;82.30;;;;;;5059426;28;20040;-59
2021/08/15 04:30:25;;;;;;;12.43;7.90;;;25.60;82.30;;;;;;5048810;28;20029;-60
2021/08/15 04:32:51;;;;;;;14.18;7.60;;;25.60;82.30;;;;;;5059064;28;20028;-60
2021/08/15 04:35:16;;;;;;;11.95;7.57;;;25.60;82.30;;;;;;5064036;28;20044;-59
2021/08/15 04:37:42;;;;;;;11.32;7.57;;;25.60;82.40;;;;;;5058628;28;20050;-60
2021/08/15 04:40:09;;;;;;;11.82;7.55;;;25.60;82.50;;;;;;5025581;28;20044;-59
2021/08/15 04:42:34;;;;;;;11.20;7.30;;;25.50;82.50;;;;;;5062289;28;20436;-60
2021/08/15 04:45:00;;;;;;;15.43;7.95;;;25.50;82.60;;;;;;5046934;28;20046;-60
2021/08/15 04:47:25;;;;;;;12.40;7.25;;;25.50;82.70;;;;;;5061571;28;20111;-59
2021/08/15 04:49:51;;;;;;;13.10;7.85;;;25.50;82.90;;;;;;5041650;28;20033;-59
2021/08/15 04:52:16;;;;;;;12.23;7.95;;;25.50;82.90;;;;;;5038932;28;20115;-60
2021/08/15 04:54:42;;;;;;;11.70;7.60;;;25.50;83.00;;;;;;5048287;28;20051;-60
2021/08/15 04:57:07;;;;;;;11.77;8.13;;;25.50;82.90;;;;;;5062094;28;20183;-59
2021/08/15 04:59:33;;;;;;;16.13;8.55;;;25.40;82.80;;;;;;5064591;28;20078;-60
2021/08/15 05:02:01;;;;;;;14.98;8.13;;;25.40;82.80;;;;;;5030205;28;20380;-60
2021/08/15 05:04:26;;;;;;;18.45;7.95;;;25.40;82.90;;;;;;5044940;28;20538;-59
2021/08/15 05:06:52;;;;;;;16.75;8.18;;;25.40;83.00;;;;;;5064584;28;20024;-59
2021/08/15 05:09:17;;;;;;;15.32;7.68;;;25.40;83.20;;;;;;5063816;28;20036;-60
2021/08/15 05:11:43;;;;;;;13.90;7.65;;;25.40;83.20;;;;;;5056633;28;20473;-59
2021/08/15 05:14:08;;;;;;;15.85;7.97;;;25.40;83.20;;;;;;5050774;28;20056;-59
2021/08/15 05:16:34;;;;;;;13.93;7.13;;;25.40;83.20;;;;;;5061690;28;20039;-59
2021/08/15 05:18:59;;;;;;;17.45;8.43;;;25.40;83.10;;;;;;5033045;28;20028;-59
2021/08/15 05:21:25;;;;;;;15.48;7.82;;;25.40;83.10;;;;;;5038914;28;20032;-59
2021/08/15 05:23:51;;;;;;;20.70;8.98;;;25.40;83.10;;;;;;5047340;28;20468;-59
2021/08/15 05:26:16;;;;;;;23.20;8.77;;;25.20;83.10;;;;;;5057485;28;20080;-59
2021/08/15 05:28:42;;;;;;;16.38;8.02;;;25.40;83.20;;;;;;5026792;28;20132;-59
2021/08/15 05:31:07;;;;;;;18.25;7.90;;;25.30;83.10;;;;;;5028964;28;20086;-59
2021/08/15 05:33:33;;;;;;;19.88;8.50;;;25.30;83.20;;;;;;5047503;28;20067;-59
2021/08/15 05:35:58;;;;;;;14.82;8.68;;;25.30;83.20;;;;;;5044173;28;20025;-59
2021/08/15 05:38:24;;;;;;;14.15;8.60;;;25.30;83.20;;;;;;5041529;28;20049;-59
2021/08/15 05:40:49;;;;;;;16.73;8.65;;;25.30;83.40;;;;;;5070347;28;20033;-59
2021/08/15 05:43:15;;;;;;;17.50;8.15;;;25.30;83.40;;;;;;5045746;28;20048;-59
2021/08/15 05:45:41;;;;;;;19.65;7.97;;;25.30;83.50;;;;;;5062701;28;20033;-59
2021/08/15 05:48:07;;;;;;;16.90;7.80;;;25.30;83.80;;;;;;5049646;28;20217;-59
2021/08/15 05:50:32;;;;;;;16.10;8.20;;;25.30;84.10;;;;;;5041235;28;20090;-59
2021/08/15 05:52:58;;;;;;;14.52;8.23;;;25.30;84.40;;;;;;5059598;28;20096;-60
2021/08/15 05:55:23;;;;;;;15.20;8.48;;;25.30;84.50;;;;;;5024341;28;20182;-60
2021/08/15 05:57:49;;;;;;;18.38;8.60;;;25.30;84.60;;;;;;5050882;28;20718;-60
2021/08/15 06:00:15;;;;;;;15.98;9.27;;;25.30;85.00;;;;;;5055178;28;20558;-60
2021/08/15 06:02:41;;;;;;;17.77;9.30;;;25.20;84.90;;;;;;5036175;28;20128;-60
2021/08/15 06:05:08;;;;;;;20.73;9.05;;;25.20;84.40;;;;;;5060109;28;20103;-59
2021/08/15 06:07:33;;;;;;;12.60;9.25;;;25.20;84.50;;;;;;5041878;28;20098;-59
2021/08/15 06:09:59;;;;;;;18.40;9.38;;;25.20;84.60;;;;;;5056765;28;20036;-59
2021/08/15 06:12:24;;;;;;;17.45;8.70;;;25.20;84.60;;;;;;5062790;28;20028;-59
2021/08/15 06:14:50;;;;;;;15.02;9.32;;;25.30;84.50;;;;;;5030567;28;20451;-59
2021/08/15 06:17:16;;;;;;;13.52;8.65;;;25.20;84.40;;;;;;5063941;28;20554;-59
2021/08/15 06:19:42;;;;;;;15.70;8.88;;;25.20;84.30;;;;;;5044732;28;20124;-59
2021/08/15 06:22:09;;;;;;;18.30;9.85;;;25.20;84.40;;;;;;5069950;28;20088;-59
2021/08/15 06:24:35;;;;;;;23.10;10.02;;;25.20;84.40;;;;;;5047968;28;20081;-60
2021/08/15 06:27:02;;;;;;;17.60;10.00;;;25.20;84.60;;;;;;5064730;28;20562;-59
2021/08/15 06:29:28;;;;;;;19.90;9.98;;;25.20;84.60;;;;;;5051362;28;20444;-59
2021/08/15 06:31:53;;;;;;;19.13;10.25;;;25.20;84.70;;;;;;5067480;28;20024;-59
2021/08/15 06:34:19;;;;;;;19.00;9.93;;;25.20;84.70;;;;;;5067452;28;20044;-59
2021/08/15 06:36:44;;;;;;;20.38;9.85;;;25.30;84.70;;;;;;5071746;28;20375;-59
2021/08/15 06:39:10;;;;;;;17.40;9.82;;;25.20;84.60;;;;;;5063452;28;20036;-59
2021/08/15 06:41:35;;;;;;;17.08;10.57;;;25.30;84.70;;;;;;5053820;28;20024;-59
2021/08/15 06:44:01;;;;;;;21.35;10.60;;;25.30;84.60;;;;;;5043465;28;20254;-59
2021/08/15 06:46:26;;;;;;;19.20;10.40;;;25.30;84.50;;;;;;5064737;28;20487;-60
2021/08/15 06:48:52;;;;;;;29.27;11.77;;;25.30;84.70;;;;;;5068370;28;20739;-59
2021/08/15 06:51:17;;;;;;;16.92;11.32;;;25.30;84.90;;;;;;5068653;28;20035;-59
2021/08/15 06:53:43;;;;;;;17.20;12.10;;;25.30;84.80;;;;;;5042359;28;20037;-59
2021/08/15 06:56:10;;;;;;;23.92;12.77;;;25.30;85.20;;;;;;5040274;28;20048;-59
2021/08/15 06:58:36;;;;;;;20.13;12.75;;;25.30;85.40;;;;;;5052178;28;20210;-60
2021/08/15 07:01:02;;;;;;;19.20;13.00;;;25.30;85.30;;;;;;5050228;28;20282;-60
2021/08/15 07:03:27;;;;;;;21.05;12.27;;;25.30;85.10;;;;;;5061081;28;20568;-59
2021/08/15 07:05:53;;;;;;;21.60;14.48;;;25.30;85.00;;;;;;5062390;28;20136;-59
2021/08/15 07:08:18;;;;;;;19.80;14.43;;;25.30;85.70;;;;;;5027203;28;20422;-59
2021/08/15 07:10:44;;;;;;;23.10;13.73;;;25.20;85.50;;;;;;5029293;28;20040;-59
2021/08/15 07:13:10;;;;;;;29.13;15.13;;;25.30;85.70;;;;;;5064201;28;20032;-59
2021/08/15 07:15:35;;;;;;;24.85;15.43;;;25.30;85.90;;;;;;5054395;28;20048;-59
2021/08/15 07:18:01;;;;;;;22.38;15.88;;;25.30;85.90;;;;;;5066899;28;20055;-60
2021/08/15 07:20:27;;;;;;;24.27;15.02;;;25.30;86.00;;;;;;5042472;28;20082;-59
2021/08/15 07:22:52;;;;;;;25.75;16.00;;;25.30;86.20;;;;;;5066029;28;20166;-59
2021/08/15 07:25:19;;;;;;;24.60;16.13;;;25.30;86.50;;;;;;5031478;28;20112;-59
2021/08/15 07:27:44;;;;;;;23.23;15.32;;;25.30;86.30;;;;;;5026886;28;20617;-59
2021/08/15 07:30:10;;;;;;;23.13;15.90;;;25.30;86.30;;;;;;5050477;28;20080;-60
2021/08/15 07:32:36;;;;;;;24.20;16.60;;;25.30;86.20;;;;;;5034837;28;20379;-59
2021/08/15 07:35:02;;;;;;;23.27;15.07;;;25.30;86.20;;;;;;5032427;28;20056;-59
2021/08/15 07:37:28;;;;;;;24.75;16.70;;;25.30;86.30;;;;;;5040738;28;20036;-59
2021/08/15 07:39:54;;;;;;;25.02;17.52;;;25.40;86.10;;;;;;5044566;28;20043;-59
2021/08/15 07:42:20;;;;;;;25.63;15.43;;;25.40;85.90;;;;;;5012463;28;20387;-60
2021/08/15 07:44:46;;;;;;;24.40;15.82;;;25.40;85.80;;;;;;5065504;28;20470;-59
2021/08/15 07:47:11;;;;;;;27.60;15.50;;;25.40;85.60;;;;;;5062910;28;20127;-60
2021/08/15 07:49:37;;;;;;;29.45;16.63;;;25.40;85.60;;;;;;5061678;28;20040;-59
2021/08/15 07:52:03;;;;;;;28.65;17.17;;;25.40;85.60;;;;;;5048829;28;20072;-59
2021/08/15 07:54:28;;;;;;;23.23;16.00;;;25.40;85.50;;;;;;5040849;28;20028;-59
2021/08/15 07:56:54;;;;;;;25.02;15.65;;;25.50;85.60;;;;;;5047004;28;20443;-59
2021/08/15 07:59:20;;;;;;;21.35;15.43;;;25.50;85.70;;;;;;5037037;28;20059;-59
2021/08/15 08:01:45;;;;;;;25.88;16.75;;;25.50;85.90;;;;;;5062107;28;20052;-59
2021/08/15 08:04:11;;;;;;;29.55;18.20;;;25.50;85.50;;;;;;5032183;28;20507;-59
2021/08/15 08:06:37;;;;;;;24.05;17.75;;;25.60;85.60;;;;;;5024353;28;20124;-60
2021/08/15 08:09:02;;;;;;;26.83;17.85;;;25.60;86.50;;;;;;5040385;28;20065;-59
2021/08/15 08:11:28;;;;;;;28.08;17.25;;;25.60;86.60;;;;;;5028143;28;20035;-60
2021/08/15 08:13:54;;;;;;;28.13;17.23;;;25.60;86.30;;;;;;5042814;28;20476;-59
2021/08/15 08:16:19;;;;;;;22.70;17.55;;;25.60;86.40;;;;;;5046124;28;20044;-59
2021/08/15 08:18:47;;;;;;;31.00;17.55;;;25.60;86.50;;;;;;5053987;28;20032;-59
2021/08/15 08:21:13;;;;;;;29.17;17.73;;;25.70;87.00;;;;;;5060537;28;20040;-60
2021/08/15 08:23:39;;;;;;;28.23;18.08;;;25.70;86.70;;;;;;5036138;28;20087;-59
2021/08/15 08:26:04;;;;;;;26.88;17.50;;;25.70;86.90;;;;;;5038208;28;21207;-60
2021/08/15 08:28:30;;;;;;;58.72;19.75;;;25.80;87.10;;;;;;5064604;28;20427;-61
2021/08/15 08:30:55;;;;;;;34.75;18.20;;;25.80;86.80;;;;;;5040522;28;20032;-60
2021/08/15 08:33:21;;;;;;;33.38;17.92;;;25.80;87.10;;;;;;5058399;28;20047;-60
2021/08/15 08:35:46;;;;;;;37.17;19.38;;;25.80;87.00;;;;;;5044638;28;21411;-59
2021/08/15 08:38:12;;;;;;;39.47;18.65;;;25.90;87.30;;;;;;5066498;28;20044;-60
2021/08/15 08:40:37;;;;;;;30.75;18.85;;;25.90;87.20;;;;;;5042783;28;20025;-60
2021/08/15 08:43:03;;;;;;;33.60;19.13;;;25.90;87.20;;;;;;5025601;28;20032;-60
2021/08/15 08:45:28;;;;;;;42.13;19.70;;;26.00;87.20;;;;;;5059218;28;20048;-60
2021/08/15 08:47:54;;;;;;;41.45;19.15;;;26.00;87.40;;;;;;5025290;28;20052;-60
2021/08/15 08:50:21;;;;;;;54.28;20.67;;;26.00;87.50;;;;;;5040524;28;20094;-60
2021/08/15 08:52:47;;;;;;;37.83;20.05;;;26.00;87.70;;;;;;5029948;28;20080;-59
2021/08/15 08:55:13;;;;;;;57.17;20.63;;;26.10;87.40;;;;;;5013453;28;20025;-60
2021/08/15 08:57:38;;;;;;;63.28;19.67;;;26.10;87.50;;;;;;5057463;28;20364;-60
2021/08/15 09:00:05;;;;;;;41.72;19.33;;;26.20;87.50;;;;;;5036142;28;20106;-60
2021/08/15 09:02:30;;;;;;;41.83;20.33;;;26.20;87.50;;;;;;5033024;28;20028;-60
2021/08/15 09:04:56;;;;;;;49.72;19.90;;;26.20;87.50;;;;;;5055945;28;20036;-60
2021/08/15 09:07:23;;;;;;;44.30;19.45;;;26.30;87.50;;;;;;5052260;28;20045;-60
2021/08/15 09:09:58;;;;;;;55.55;20.55;;;26.30;87.20;;;;;;5042641;28;20739;-60
2021/08/15 09:12:37;;;;;;;54.55;21.45;;;26.30;87.20;;;;;;5039530;28;20119;-59
2021/08/15 09:15:11;;;;;;;56.05;21.08;;;26.40;87.20;;;;;;5034585;28;20044;-60
2021/08/15 09:17:37;;;;;;;53.72;19.77;;;26.40;87.20;;;;;;5055996;28;20047;-60
2021/08/15 09:20:03;;;;;;;52.95;19.73;;;26.40;87.10;;;;;;5058219;28;20021;-60
2021/08/15 09:22:30;;;;;;;59.17;19.40;;;26.50;87.10;;;;;;5041903;28;20059;-60
2021/08/15 09:24:56;;;;;;;59.65;19.63;;;26.50;87.20;;;;;;5029800;28;20106;-60
2021/08/15 09:27:23;;;;;;;93.53;21.45;;;26.50;87.10;;;;;;5057886;28;20391;-59
2021/08/15 09:30:08;;;;;;;87.20;20.88;;;26.50;87.00;;;;;;5051563;28;20037;-60
2021/08/15 09:32:33;;;;;;;49.73;19.10;;;26.60;86.90;;;;;;5039830;28;20021;-59
2021/08/15 09:35:00;;;;;;;69.93;19.08;;;26.60;86.80;;;;;;5027777;28;21136;-60
2021/08/15 09:37:33;;;;;;;57.10;19.73;;;26.60;86.70;;;;;;5036831;28;20435;-60
2021/08/15 09:39:59;;;;;;;70.15;19.25;;;26.70;86.60;;;;;;5044904;28;20058;-60
2021/08/15 09:42:43;;;;;;;64.13;19.85;;;26.70;86.50;;;;;;5028446;28;20029;-59
2021/08/15 09:45:17;;;;;;;61.92;19.95;;;26.70;86.50;;;;;;5053223;28;20040;-60
2021/08/15 09:47:43;;;;;;;52.65;19.27;;;26.80;86.50;;;;;;5032405;28;20033;-60
2021/08/15 09:50:23;;;;;;;50.45;20.98;;;26.80;86.40;;;;;;5040729;28;20106;-60
2021/08/15 09:52:48;;;;;;;58.35;19.67;;;26.80;86.20;;;;;;5060319;28;20048;-60
2021/08/15 09:55:14;;;;;;;48.10;18.17;;;26.90;85.90;;;;;;5029335;28;20128;-60
2021/08/15 09:57:39;;;;;;;59.75;20.90;;;26.90;85.70;;;;;;5042138;28;20128;-60
2021/08/15 10:00:07;;;;;;;53.20;20.00;;;26.90;85.70;;;;;;5045805;28;20102;-60
2021/08/15 10:02:32;;;;;;;71.65;20.05;;;27.00;86.10;;;;;;5027940;28;20017;-60
2021/08/15 10:04:58;;;;;;;66.13;19.08;;;27.00;85.30;;;;;;5059972;28;20036;-60
2021/08/15 10:07:24;;;;;;;60.92;18.77;;;27.10;85.10;;;;;;5035335;28;20522;-59
2021/08/15 10:09:50;;;;;;;46.38;18.17;;;27.10;84.70;;;;;;5027065;28;20110;-60
2021/08/15 10:12:15;;;;;;;79.05;19.23;;;27.20;84.50;;;;;;5036980;28;20499;-59
2021/08/15 10:14:41;;;;;;;49.08;19.08;;;27.20;84.00;;;;;;5045726;28;20074;-60
2021/08/15 10:17:11;;;;;;;64.85;19.00;;;27.30;83.80;;;;;;5042957;28;20067;-60
2021/08/15 10:19:50;;;;;;;64.80;19.23;;;27.30;83.60;;;;;;5033278;28;20104;-60
2021/08/15 10:22:40;;;;;;;57.00;17.65;;;27.30;82.90;;;;;;5042755;28;20032;-60
2021/08/15 10:25:07;;;;;;;45.28;16.95;;;27.40;82.70;;;;;;5031392;28;20108;-59
2021/08/15 10:27:39;;;;;;;51.92;15.70;;;27.40;82.20;;;;;;5047307;28;20121;-60
2021/08/15 10:30:14;;;;;;;63.75;17.92;;;27.50;82.20;;;;;;5040108;28;20106;-60
2021/08/15 10:32:54;;;;;;;45.97;16.75;;;27.50;82.00;;;;;;5055863;28;20049;-60
2021/08/15 10:35:24;;;;;;;48.10;15.38;;;27.60;81.90;;;;;;5060113;28;20119;-60
2021/08/15 10:37:54;;;;;;;77.32;16.88;;;27.60;81.60;;;;;;5043906;28;20032;-60
2021/08/15 10:40:41;;;;;;;37.65;15.40;;;27.70;81.60;;;;;;5030628;28;20038;-60
2021/08/15 10:43:11;;;;;;;51.03;15.50;;;27.70;81.30;;;;;;5057895;28;20032;-60
2021/08/15 10:45:37;;;;;;;44.50;16.13;;;27.70;81.10;;;;;;5067964;28;20206;-59
2021/08/15 10:48:07;;;;;;;39.40;15.07;;;27.80;81.10;;;;;;5026130;28;20029;-60
2021/08/15 10:50:46;;;;;;;32.08;15.07;;;27.70;81.10;;;;;;5064985;28;20119;-61
2021/08/15 10:53:29;;;;;;;39.35;14.65;;;27.80;81.30;;;;;;5046493;28;20040;-60
2021/08/15 10:56:02;;;;;;;27.25;13.57;;;27.70;81.40;;;;;;5061438;28;20028;-59
2021/08/15 10:58:44;;;;;;;28.67;13.57;;;27.80;81.30;;;;;;5022771;28;20037;-60
2021/08/15 11:01:19;;;;;;;26.30;13.15;;;27.80;81.60;;;;;;5042308;28;20028;-60
2021/08/15 11:03:48;;;;;;;;;;;27.80;81.80;;;;;;5061137;28;20033;-60
2021/08/15 11:06:39;;;;;;;37.38;12.90;;;27.90;81.90;;;;;;5067610;28;19923;-60
2021/08/15 11:09:05;;;;;;;31.00;13.85;;;27.80;81.90;;;;;;5063461;28;20508;-60
2021/08/15 11:11:31;;;;;;;28.35;12.82;;;27.80;81.90;;;;;;5047621;28;20076;-60
2021/08/15 11:14:26;;;;;;;34.50;12.82;;;27.80;82.10;;;;;;5030052;28;20028;-60
2021/08/15 11:17:01;;;;;;;21.30;11.82;;;27.90;82.50;;;;;;5050343;28;20048;-61
2021/08/15 11:19:27;;;;;;;;;;;27.80;82.60;;;;;;5051026;28;20036;-60
2021/08/15 11:22:24;;;;;;;30.48;12.45;;;27.80;82.90;;;;;;5047143;28;20276;-60
2021/08/15 11:25:01;;;;;;;32.80;12.40;;;27.90;83.50;;;;;;5049218;28;20836;-63
2021/08/15 11:27:34;;;;;;;46.60;14.68;;;27.90;84.40;;;;;;5026034;28;20041;-62
2021/08/15 11:30:03;;;;;;;34.10;13.52;;;27.90;85.20;;;;;;5050152;28;20020;-62
2021/08/15 11:32:30;;;;;;;28.02;13.75;;;27.80;85.40;;;;;;5045721;28;20413;-64
2021/08/15 11:34:56;;;;;;;36.55;15.25;;;27.80;86.50;;;;;;5039964;28;20075;-60
2021/08/15 11:37:29;;;;;;;44.92;14.23;;;27.80;87.00;;;;;;5059141;28;20368;-60
2021/08/15 11:39:55;;;;;;;34.03;14.55;;;27.80;87.60;;;;;;5068575;28;20065;-60
2021/08/15 11:42:25;;;;;;;34.83;14.75;;;27.90;88.10;;;;;;5029685;28;21465;-59
2021/08/15 11:44:56;;;;;;;34.78;15.75;;;27.90;87.90;;;;;;5050299;28;20020;-62
2021/08/15 11:47:27;;;;;;;32.95;16.08;;;28.00;88.10;;;;;;5047800;28;20032;-60
2021/08/15 11:49:53;;;;;;;27.40;15.88;;;28.10;88.10;;;;;;5029710;28;20059;-59
2021/08/15 11:52:23;;;;;;;50.58;16.95;;;28.20;88.00;;;;;;5021502;28;20046;-59
2021/08/15 11:54:50;;;;;;;45.45;15.75;;;28.20;87.50;;;;;;5047170;28;20047;-59
2021/08/15 11:57:15;;;;;;;29.17;14.68;;;28.30;87.50;;;;;;5061556;28;20016;-60
2021/08/15 11:59:43;;;;;;;35.08;15.65;;;28.30;87.00;;;;;;5064924;28;20448;-59
2021/08/15 12:02:19;;;;;;;32.05;14.32;;;28.40;86.70;;;;;;5040970;28;20031;-59
2021/08/15 12:04:46;;;;;;;28.05;14.02;;;28.50;86.70;;;;;;5040895;28;20310;-60
2021/08/15 12:07:11;;;;;;;50.22;16.38;;;28.60;85.90;;;;;;5064960;28;20043;-60
2021/08/15 12:09:37;;;;;;;38.58;16.20;;;28.60;85.70;;;;;;5042018;28;20531;-60
2021/08/15 12:12:05;;;;;;;38.58;16.73;;;28.70;85.30;;;;;;5062971;28;20530;-60
2021/08/15 12:14:35;;;;;;;52.53;16.67;;;28.80;85.00;;;;;;5062804;28;20083;-59
2021/08/15 12:17:01;;;;;;;46.13;16.70;;;28.80;84.80;;;;;;5067889;28;20054;-60
2021/08/15 12:19:28;;;;;;;51.78;16.42;;;28.80;84.50;;;;;;5057907;28;20029;-60
2021/08/15 12:21:54;;;;;;;46.15;17.17;;;28.90;84.20;;;;;;5042238;28;20023;-60
2021/08/15 12:24:21;;;;;;;54.40;16.25;;;28.90;83.70;;;;;;5015436;28;20037;-60
2021/08/15 12:26:55;;;;;;;43.78;15.95;;;29.00;83.40;;;;;;5070707;28;20090;-59
2021/08/15 12:29:35;;;;;;;45.00;16.40;;;29.00;83.40;;;;;;5045985;28;20025;-60
2021/08/15 12:32:01;;;;;;;50.15;16.58;;;29.10;83.30;;;;;;5061864;28;20116;-60